sensor_id;sensor_type;location;lat;lon;timestamp;temperature;humidity
22491;DHT22;11412;50.802;4.350;2022-11-18T00:01:32;11.50;99.90
22491;DHT22;11412;50.802;4.350;2022-11-18T00:03:58;11.60;99.90
22491;DHT22;11412;50.802;4.350;2022-11-18T00:06:25;11.30;99.90
22491;DHT22;11412;50.802;4.350;2022-11-18T00:08:52;11.30;99.90
22491;DHT22;11412;50.802;4.350;2022-11-18T00:11:22;11.20;99.90
22491;DHT22;11412;50.802;4.350;2022-11-18T00:14:12;11.50;99.90
22491;DHT22;11412;50.802;4.350;2022-11-18T00:16:47;11.30;99.90
22491;DHT22;11412;50.802;4.350;2022-11-18T00:19:14;11.20;99.90
22491;DHT22;11412;50.802;4.350;2022-11-18T00:21:40;11.00;99.90
22491;DHT22;11412;50.802;4.350;2022-11-18T00:24:06;11.30;99.90
22491;DHT22;11412;50.802;4.350;2022-11-18T00:26:31;11.40;99.90
22491;DHT22;11412;50.802;4.350;2022-11-18T00:28:57;11.20;99.90
22491;DHT22;11412;50.802;4.350;2022-11-18T00:31:22;11.30;99.90
22491;DHT22;11412;50.802;4.350;2022-11-18T00:33:48;11.40;99.90
22491;DHT22;11412;50.802;4.350;2022-11-18T00:36:14;11.40;99.90
22491;DHT22;11412;50.802;4.350;2022-11-18T00:38:40;11.40;99.90
22491;DHT22;11412;50.802;4.350;2022-11-18T00:41:08;11.20;99.90
22491;DHT22;11412;50.802;4.350;2022-11-18T00:43:35;10.90;99.90
22491;DHT22;11412;50.802;4.350;2022-11-18T00:46:02;11.00;99.90
22491;DHT22;11412;50.802;4.350;2022-11-18T00:48:28;11.10;99.90
22491;DHT22;11412;50.802;4.350;2022-11-18T00:50:57;11.20;99.90
22491;DHT22;11412;50.802;4.350;2022-11-18T00:53:24;11.20;99.90
22491;DHT22;11412;50.802;4.350;2022-11-18T00:55:50;11.30;99.90
22491;DHT22;11412;50.802;4.350;2022-11-18T00:58:16;11.00;99.90
22491;DHT22;11412;50.802;4.350;2022-11-18T01:00:44;11.20;99.90
22491;DHT22;11412;50.802;4.350;2022-11-18T01:03:11;11.20;99.90
22491;DHT22;11412;50.802;4.350;2022-11-18T01:05:37;11.00;99.90
22491;DHT22;11412;50.802;4.350;2022-11-18T01:08:07;11.00;99.90
22491;DHT22;11412;50.802;4.350;2022-11-18T01:10:34;11.30;99.90
22491;DHT22;11412;50.802;4.350;2022-11-18T01:13:00;11.10;99.90
22491;DHT22;11412;50.802;4.350;2022-11-18T01:18:10;11.20;99.90
22491;DHT22;11412;50.802;4.350;2022-11-18T01:20:36;11.40;99.90
22491;DHT22;11412;50.802;4.350;2022-11-18T01:23:03;11.20;99.90
22491;DHT22;11412;50.802;4.350;2022-11-18T01:25:29;11.20;99.90
22491;DHT22;11412;50.802;4.350;2022-11-18T01:27:55;11.00;99.90
22491;DHT22;11412;50.802;4.350;2022-11-18T01:30:21;10.80;99.90
22491;DHT22;11412;50.802;4.350;2022-11-18T01:32:47;10.90;99.90
22491;DHT22;11412;50.802;4.350;2022-11-18T01:35:12;10.90;99.90
22491;DHT22;11412;50.802;4.350;2022-11-18T01:37:38;11.00;99.90
22491;DHT22;11412;50.802;4.350;2022-11-18T01:40:06;10.70;99.90
22491;DHT22;11412;50.802;4.350;2022-11-18T01:42:31;10.50;99.90
22491;DHT22;11412;50.802;4.350;2022-11-18T01:45:01;10.70;99.90
22491;DHT22;11412;50.802;4.350;2022-11-18T01:47:36;10.70;99.90
22491;DHT22;11412;50.802;4.350;2022-11-18T01:50:04;10.70;99.90
22491;DHT22;11412;50.802;4.350;2022-11-18T01:52:33;11.00;99.90
22491;DHT22;11412;50.802;4.350;2022-11-18T01:55:05;11.00;99.90
22491;DHT22;11412;50.802;4.350;2022-11-18T01:57:31;10.60;99.90
22491;DHT22;11412;50.802;4.350;2022-11-18T02:00:00;10.50;99.90
22491;DHT22;11412;50.802;4.350;2022-11-18T02:02:30;10.60;99.90
22491;DHT22;11412;50.802;4.350;2022-11-18T02:04:57;10.70;99.90
22491;DHT22;11412;50.802;4.350;2022-11-18T02:07:23;10.70;99.90
22491;DHT22;11412;50.802;4.350;2022-11-18T02:09:50;10.70;99.90
22491;DHT22;11412;50.802;4.350;2022-11-18T02:12:18;10.60;99.90
22491;DHT22;11412;50.802;4.350;2022-11-18T02:14:45;10.60;99.90
22491;DHT22;11412;50.802;4.350;2022-11-18T02:25:48;10.60;99.90
22491;DHT22;11412;50.802;4.350;2022-11-18T02:31:31;10.70;99.90
22491;DHT22;11412;50.802;4.350;2022-11-18T02:36:49;10.70;99.90
22491;DHT22;11412;50.802;4.350;2022-11-18T02:39:21;10.80;99.90
22491;DHT22;11412;50.802;4.350;2022-11-18T02:41:48;10.70;99.90
22491;DHT22;11412;50.802;4.350;2022-11-18T02:44:16;10.40;99.90
22491;DHT22;11412;50.802;4.350;2022-11-18T02:46:48;10.20;99.90
22491;DHT22;11412;50.802;4.350;2022-11-18T02:49:21;10.40;99.90
22491;DHT22;11412;50.802;4.350;2022-11-18T02:51:50;10.30;99.90
22491;DHT22;11412;50.802;4.350;2022-11-18T02:54:17;10.00;99.90
22491;DHT22;11412;50.802;4.350;2022-11-18T02:56:45;9.90;99.90
22491;DHT22;11412;50.802;4.350;2022-11-18T02:59:17;9.90;99.90
22491;DHT22;11412;50.802;4.350;2022-11-18T03:01:42;10.20;99.90
22491;DHT22;11412;50.802;4.350;2022-11-18T03:04:08;10.30;99.90
22491;DHT22;11412;50.802;4.350;2022-11-18T03:06:39;10.00;99.90
22491;DHT22;11412;50.802;4.350;2022-11-18T03:09:21;9.70;99.90
22491;DHT22;11412;50.802;4.350;2022-11-18T03:12:06;9.60;99.90
22491;DHT22;11412;50.802;4.350;2022-11-18T03:20:11;9.30;99.90
22491;DHT22;11412;50.802;4.350;2022-11-18T03:23:01;9.40;99.90
22491;DHT22;11412;50.802;4.350;2022-11-18T03:25:36;9.50;99.90
22491;DHT22;11412;50.802;4.350;2022-11-18T03:30:29;9.70;99.90
22491;DHT22;11412;50.802;4.350;2022-11-18T03:33:24;9.60;99.90
22491;DHT22;11412;50.802;4.350;2022-11-18T03:35:52;9.80;99.90
22491;DHT22;11412;50.802;4.350;2022-11-18T03:38:25;9.70;99.90
22491;DHT22;11412;50.802;4.350;2022-11-18T03:40:56;9.50;99.90
22491;DHT22;11412;50.802;4.350;2022-11-18T03:43:26;9.30;99.90
22491;DHT22;11412;50.802;4.350;2022-11-18T03:46:07;9.40;99.90
22491;DHT22;11412;50.802;4.350;2022-11-18T03:48:39;9.30;99.90
22491;DHT22;11412;50.802;4.350;2022-11-18T03:51:08;9.50;99.90
22491;DHT22;11412;50.802;4.350;2022-11-18T03:53:50;9.70;99.90
22491;DHT22;11412;50.802;4.350;2022-11-18T03:56:22;9.30;99.90
22491;DHT22;11412;50.802;4.350;2022-11-18T04:01:44;9.60;99.90
22491;DHT22;11412;50.802;4.350;2022-11-18T04:04:11;9.90;99.90
22491;DHT22;11412;50.802;4.350;2022-11-18T04:09:26;9.70;99.90
22491;DHT22;11412;50.802;4.350;2022-11-18T04:12:02;9.60;99.90
22491;DHT22;11412;50.802;4.350;2022-11-18T04:14:40;9.30;99.90
22491;DHT22;11412;50.802;4.350;2022-11-18T04:17:11;9.20;99.90
22491;DHT22;11412;50.802;4.350;2022-11-18T04:19:38;9.00;99.90
22491;DHT22;11412;50.802;4.350;2022-11-18T04:22:04;9.30;99.90
22491;DHT22;11412;50.802;4.350;2022-11-18T04:24:30;9.20;99.90
22491;DHT22;11412;50.802;4.350;2022-11-18T04:26:56;9.50;99.90
22491;DHT22;11412;50.802;4.350;2022-11-18T04:29:22;9.50;99.90
22491;DHT22;11412;50.802;4.350;2022-11-18T04:31:48;9.60;99.90
22491;DHT22;11412;50.802;4.350;2022-11-18T04:34:13;9.60;99.90
22491;DHT22;11412;50.802;4.350;2022-11-18T04:36:39;9.80;99.90
22491;DHT22;11412;50.802;4.350;2022-11-18T04:39:05;9.90;99.90
22491;DHT22;11412;50.802;4.350;2022-11-18T04:41:30;10.00;99.90
22491;DHT22;11412;50.802;4.350;2022-11-18T04:44:15;9.90;99.90
22491;DHT22;11412;50.802;4.350;2022-11-18T04:46:42;9.50;99.90
22491;DHT22;11412;50.802;4.350;2022-11-18T04:49:09;9.60;99.90
22491;DHT22;11412;50.802;4.350;2022-11-18T04:51:35;9.50;99.90
22491;DHT22;11412;50.802;4.350;2022-11-18T04:54:02;9.60;99.90
22491;DHT22;11412;50.802;4.350;2022-11-18T04:56:28;9.70;99.90
22491;DHT22;11412;50.802;4.350;2022-11-18T04:58:54;9.70;99.90
22491;DHT22;11412;50.802;4.350;2022-11-18T05:01:20;10.00;99.90
22491;DHT22;11412;50.802;4.350;2022-11-18T05:03:46;9.80;99.90
22491;DHT22;11412;50.802;4.350;2022-11-18T05:06:11;9.50;99.90
22491;DHT22;11412;50.802;4.350;2022-11-18T05:08:38;9.30;99.90
22491;DHT22;11412;50.802;4.350;2022-11-18T05:11:07;9.30;99.90
22491;DHT22;11412;50.802;4.350;2022-11-18T05:13:51;9.20;99.90
22491;DHT22;11412;50.802;4.350;2022-11-18T05:16:17;9.40;99.90
22491;DHT22;11412;50.802;4.350;2022-11-18T05:18:43;9.70;99.90
22491;DHT22;11412;50.802;4.350;2022-11-18T05:21:08;9.80;99.90
22491;DHT22;11412;50.802;4.350;2022-11-18T05:23:34;9.50;99.90
22491;DHT22;11412;50.802;4.350;2022-11-18T05:26:08;9.50;99.90
22491;DHT22;11412;50.802;4.350;2022-11-18T05:28:34;9.30;99.90
22491;DHT22;11412;50.802;4.350;2022-11-18T05:31:08;9.50;99.90
22491;DHT22;11412;50.802;4.350;2022-11-18T05:33:35;9.70;99.90
22491;DHT22;11412;50.802;4.350;2022-11-18T05:36:09;9.40;99.90
22491;DHT22;11412;50.802;4.350;2022-11-18T05:38:35;9.50;99.90
22491;DHT22;11412;50.802;4.350;2022-11-18T05:41:01;9.70;99.90
22491;DHT22;11412;50.802;4.350;2022-11-18T05:43:27;9.60;99.90
22491;DHT22;11412;50.802;4.350;2022-11-18T05:45:53;9.70;99.90
22491;DHT22;11412;50.802;4.350;2022-11-18T05:48:19;9.70;99.90
22491;DHT22;11412;50.802;4.350;2022-11-18T05:50:47;9.50;99.90
22491;DHT22;11412;50.802;4.350;2022-11-18T05:53:14;9.30;99.90
22491;DHT22;11412;50.802;4.350;2022-11-18T05:55:57;9.10;99.90
22491;DHT22;11412;50.802;4.350;2022-11-18T05:58:24;9.00;99.90
22491;DHT22;11412;50.802;4.350;2022-11-18T06:00:51;9.20;99.90
22491;DHT22;11412;50.802;4.350;2022-11-18T06:03:23;9.70;99.90
22491;DHT22;11412;50.802;4.350;2022-11-18T06:05:53;9.80;99.90
22491;DHT22;11412;50.802;4.350;2022-11-18T06:08:19;9.80;99.90
22491;DHT22;11412;50.802;4.350;2022-11-18T06:10:46;9.80;99.90
22491;DHT22;11412;50.802;4.350;2022-11-18T06:13:18;9.90;99.90
22491;DHT22;11412;50.802;4.350;2022-11-18T06:15:45;9.70;99.90
22491;DHT22;11412;50.802;4.350;2022-11-18T06:18:23;9.80;99.90
22491;DHT22;11412;50.802;4.350;2022-11-18T06:20:52;9.60;99.90
22491;DHT22;11412;50.802;4.350;2022-11-18T06:23:19;9.50;99.90
22491;DHT22;11412;50.802;4.350;2022-11-18T06:25:45;9.20;99.90
22491;DHT22;11412;50.802;4.350;2022-11-18T06:28:13;9.20;99.90
22491;DHT22;11412;50.802;4.350;2022-11-18T06:30:39;9.20;99.90
22491;DHT22;11412;50.802;4.350;2022-11-18T06:33:05;9.20;99.90
22491;DHT22;11412;50.802;4.350;2022-11-18T06:35:31;9.40;99.90
22491;DHT22;11412;50.802;4.350;2022-11-18T06:37:57;9.40;99.90
22491;DHT22;11412;50.802;4.350;2022-11-18T06:40:22;9.40;99.90
22491;DHT22;11412;50.802;4.350;2022-11-18T06:42:48;9.40;99.90
22491;DHT22;11412;50.802;4.350;2022-11-18T06:45:32;9.20;99.90
22491;DHT22;11412;50.802;4.350;2022-11-18T06:47:58;9.40;99.90
22491;DHT22;11412;50.802;4.350;2022-11-18T06:50:25;9.30;99.90
22491;DHT22;11412;50.802;4.350;2022-11-18T06:52:51;9.30;99.90
22491;DHT22;11412;50.802;4.350;2022-11-18T06:55:17;9.20;99.90
22491;DHT22;11412;50.802;4.350;2022-11-18T06:57:43;9.10;99.90
22491;DHT22;11412;50.802;4.350;2022-11-18T07:00:09;9.20;99.90
22491;DHT22;11412;50.802;4.350;2022-11-18T07:02:35;9.10;99.90
22491;DHT22;11412;50.802;4.350;2022-11-18T07:05:01;9.00;99.90
22491;DHT22;11412;50.802;4.350;2022-11-18T07:07:27;9.30;99.90
22491;DHT22;11412;50.802;4.350;2022-11-18T07:09:53;9.30;99.90
22491;DHT22;11412;50.802;4.350;2022-11-18T07:12:18;9.40;99.90
22491;DHT22;11412;50.802;4.350;2022-11-18T07:14:44;9.50;99.90
22491;DHT22;11412;50.802;4.350;2022-11-18T07:17:10;9.50;99.90
22491;DHT22;11412;50.802;4.350;2022-11-18T07:19:35;9.80;99.90
22491;DHT22;11412;50.802;4.350;2022-11-18T07:22:01;9.70;99.90
22491;DHT22;11412;50.802;4.350;2022-11-18T07:24:27;9.70;99.90
22491;DHT22;11412;50.802;4.350;2022-11-18T07:26:52;9.90;99.90
22491;DHT22;11412;50.802;4.350;2022-11-18T07:29:18;9.80;99.90
22491;DHT22;11412;50.802;4.350;2022-11-18T07:31:44;9.70;99.90
22491;DHT22;11412;50.802;4.350;2022-11-18T07:34:11;9.80;99.90
22491;DHT22;11412;50.802;4.350;2022-11-18T07:36:37;9.80;99.90
22491;DHT22;11412;50.802;4.350;2022-11-18T07:39:06;9.90;99.90
22491;DHT22;11412;50.802;4.350;2022-11-18T07:41:32;9.90;99.90
22491;DHT22;11412;50.802;4.350;2022-11-18T07:44:00;9.90;99.90
22491;DHT22;11412;50.802;4.350;2022-11-18T07:46:29;10.10;99.90
22491;DHT22;11412;50.802;4.350;2022-11-18T07:48:57;10.00;99.90
22491;DHT22;11412;50.802;4.350;2022-11-18T07:51:29;10.10;99.90
22491;DHT22;11412;50.802;4.350;2022-11-18T07:53:55;10.30;99.90
22491;DHT22;11412;50.802;4.350;2022-11-18T07:56:21;10.30;99.90
22491;DHT22;11412;50.802;4.350;2022-11-18T07:58:50;10.30;99.90
22491;DHT22;11412;50.802;4.350;2022-11-18T08:01:18;10.10;99.90
22491;DHT22;11412;50.802;4.350;2022-11-18T08:03:45;10.10;99.90
22491;DHT22;11412;50.802;4.350;2022-11-18T08:06:13;10.20;99.90
22491;DHT22;11412;50.802;4.350;2022-11-18T08:08:40;10.10;99.90
22491;DHT22;11412;50.802;4.350;2022-11-18T08:11:08;9.90;99.90
22491;DHT22;11412;50.802;4.350;2022-11-18T08:13:35;10.00;99.90
22491;DHT22;11412;50.802;4.350;2022-11-18T08:16:01;10.10;99.90
22491;DHT22;11412;50.802;4.350;2022-11-18T08:18:28;10.30;99.90
22491;DHT22;11412;50.802;4.350;2022-11-18T08:20:54;10.50;99.90
22491;DHT22;11412;50.802;4.350;2022-11-18T08:23:20;10.50;99.90
22491;DHT22;11412;50.802;4.350;2022-11-18T08:25:46;10.70;99.90
22491;DHT22;11412;50.802;4.350;2022-11-18T08:28:13;10.30;99.90
22491;DHT22;11412;50.802;4.350;2022-11-18T08:30:39;10.10;99.90
22491;DHT22;11412;50.802;4.350;2022-11-18T08:33:04;10.10;99.90
22491;DHT22;11412;50.802;4.350;2022-11-18T08:35:31;10.40;99.90
22491;DHT22;11412;50.802;4.350;2022-11-18T08:37:58;10.40;99.90
22491;DHT22;11412;50.802;4.350;2022-11-18T08:40:23;10.60;99.90
22491;DHT22;11412;50.802;4.350;2022-11-18T08:42:49;10.60;99.90
22491;DHT22;11412;50.802;4.350;2022-11-18T08:45:15;10.50;99.90
22491;DHT22;11412;50.802;4.350;2022-11-18T08:47:40;10.70;99.90
22491;DHT22;11412;50.802;4.350;2022-11-18T08:50:08;10.60;99.90
22491;DHT22;11412;50.802;4.350;2022-11-18T08:52:34;10.60;99.90
22491;DHT22;11412;50.802;4.350;2022-11-18T08:55:00;10.60;99.90
22491;DHT22;11412;50.802;4.350;2022-11-18T08:57:26;10.40;99.90
22491;DHT22;11412;50.802;4.350;2022-11-18T08:59:51;10.50;99.90
22491;DHT22;11412;50.802;4.350;2022-11-18T09:02:19;10.50;99.90
22491;DHT22;11412;50.802;4.350;2022-11-18T09:04:50;10.60;99.90
22491;DHT22;11412;50.802;4.350;2022-11-18T09:07:17;10.40;99.90
22491;DHT22;11412;50.802;4.350;2022-11-18T09:09:42;10.60;99.90
22491;DHT22;11412;50.802;4.350;2022-11-18T09:12:08;10.60;99.90
22491;DHT22;11412;50.802;4.350;2022-11-18T09:14:34;10.80;99.90
22491;DHT22;11412;50.802;4.350;2022-11-18T09:17:00;10.90;99.90
22491;DHT22;11412;50.802;4.350;2022-11-18T09:19:26;10.70;99.90
22491;DHT22;11412;50.802;4.350;2022-11-18T09:21:52;10.70;99.90
22491;DHT22;11412;50.802;4.350;2022-11-18T09:24:18;10.80;99.90
22491;DHT22;11412;50.802;4.350;2022-11-18T09:26:43;10.70;99.90
22491;DHT22;11412;50.802;4.350;2022-11-18T09:29:09;10.80;99.90
22491;DHT22;11412;50.802;4.350;2022-11-18T09:31:36;11.00;99.90
22491;DHT22;11412;50.802;4.350;2022-11-18T09:34:02;10.90;99.90
22491;DHT22;11412;50.802;4.350;2022-11-18T09:36:28;10.80;99.90
22491;DHT22;11412;50.802;4.350;2022-11-18T09:38:53;10.90;99.90
22491;DHT22;11412;50.802;4.350;2022-11-18T09:44:23;10.90;99.90
22491;DHT22;11412;50.802;4.350;2022-11-18T09:50:01;11.00;99.90
22491;DHT22;11412;50.802;4.350;2022-11-18T09:52:35;11.30;99.90
22491;DHT22;11412;50.802;4.350;2022-11-18T09:55:10;11.40;99.90
22491;DHT22;11412;50.802;4.350;2022-11-18T09:57:38;11.20;99.90
22491;DHT22;11412;50.802;4.350;2022-11-18T10:00:34;10.90;99.90
22491;DHT22;11412;50.802;4.350;2022-11-18T10:03:02;10.90;99.90
22491;DHT22;11412;50.802;4.350;2022-11-18T10:14:17;11.00;99.90
22491;DHT22;11412;50.802;4.350;2022-11-18T10:22:23;11.30;99.90
22491;DHT22;11412;50.802;4.350;2022-11-18T10:24:55;11.30;99.90
22491;DHT22;11412;50.802;4.350;2022-11-18T10:27:22;11.40;99.90
22491;DHT22;11412;50.802;4.350;2022-11-18T10:29:52;11.60;99.90
22491;DHT22;11412;50.802;4.350;2022-11-18T10:32:19;11.60;99.90
22491;DHT22;11412;50.802;4.350;2022-11-18T10:34:53;11.80;99.90
22491;DHT22;11412;50.802;4.350;2022-11-18T10:37:30;11.70;99.90
22491;DHT22;11412;50.802;4.350;2022-11-18T10:40:00;11.70;99.90
22491;DHT22;11412;50.802;4.350;2022-11-18T10:42:45;11.90;99.90
22491;DHT22;11412;50.802;4.350;2022-11-18T10:45:27;11.80;99.90
22491;DHT22;11412;50.802;4.350;2022-11-18T10:48:16;11.80;99.90
22491;DHT22;11412;50.802;4.350;2022-11-18T10:50:47;11.90;99.90
22491;DHT22;11412;50.802;4.350;2022-11-18T10:56:08;12.00;99.90
22491;DHT22;11412;50.802;4.350;2022-11-18T10:58:40;12.20;99.90
22491;DHT22;11412;50.802;4.350;2022-11-18T11:09:24;11.80;99.90
22491;DHT22;11412;50.802;4.350;2022-11-18T11:12:13;11.80;99.90
22491;DHT22;11412;50.802;4.350;2022-11-18T11:17:14;11.70;99.90
22491;DHT22;11412;50.802;4.350;2022-11-18T11:22:26;11.80;99.90
22491;DHT22;11412;50.802;4.350;2022-11-18T11:24:52;11.70;99.90
22491;DHT22;11412;50.802;4.350;2022-11-18T11:27:38;11.60;99.90
22491;DHT22;11412;50.802;4.350;2022-11-18T11:30:16;11.40;99.90
22491;DHT22;11412;50.802;4.350;2022-11-18T11:33:18;11.70;99.90
22491;DHT22;11412;50.802;4.350;2022-11-18T11:41:34;11.80;99.90
22491;DHT22;11412;50.802;4.350;2022-11-18T11:50:01;12.00;99.90
22491;DHT22;11412;50.802;4.350;2022-11-18T11:52:47;12.10;99.90
22491;DHT22;11412;50.802;4.350;2022-11-18T12:00:38;12.00;99.90
22491;DHT22;11412;50.802;4.350;2022-11-18T12:03:43;12.00;99.90
22491;DHT22;11412;50.802;4.350;2022-11-18T12:06:10;12.30;99.90
22491;DHT22;11412;50.802;4.350;2022-11-18T12:08:43;12.30;99.90
22491;DHT22;11412;50.802;4.350;2022-11-18T12:11:26;12.10;99.90
22491;DHT22;11412;50.802;4.350;2022-11-18T12:14:06;12.20;99.90
22491;DHT22;11412;50.802;4.350;2022-11-18T12:16:55;12.40;99.90
22491;DHT22;11412;50.802;4.350;2022-11-18T12:19:23;12.20;99.90
22491;DHT22;11412;50.802;4.350;2022-11-18T12:27:04;11.90;99.90
22491;DHT22;11412;50.802;4.350;2022-11-18T12:29:40;11.80;99.90
22491;DHT22;11412;50.802;4.350;2022-11-18T12:32:39;11.80;99.90
22491;DHT22;11412;50.802;4.350;2022-11-18T12:37:57;12.50;99.90
22491;DHT22;11412;50.802;4.350;2022-11-18T12:43:00;12.40;99.90
22491;DHT22;11412;50.802;4.350;2022-11-18T12:53:39;12.40;99.90
22491;DHT22;11412;50.802;4.350;2022-11-18T12:58:48;13.10;99.90
22491;DHT22;11412;50.802;4.350;2022-11-18T13:01:23;13.10;99.90
22491;DHT22;11412;50.802;4.350;2022-11-18T13:03:50;13.10;99.90
22491;DHT22;11412;50.802;4.350;2022-11-18T13:06:29;13.10;99.90
22491;DHT22;11412;50.802;4.350;2022-11-18T13:09:03;12.90;99.90
22491;DHT22;11412;50.802;4.350;2022-11-18T13:11:31;12.90;99.90
22491;DHT22;11412;50.802;4.350;2022-11-18T13:14:29;13.00;99.90
22491;DHT22;11412;50.802;4.350;2022-11-18T13:17:34;13.00;99.90
22491;DHT22;11412;50.802;4.350;2022-11-18T13:20:37;13.20;99.90
22491;DHT22;11412;50.802;4.350;2022-11-18T13:25:58;13.10;99.90
22491;DHT22;11412;50.802;4.350;2022-11-18T13:28:43;13.00;99.90
22491;DHT22;11412;50.802;4.350;2022-11-18T13:33:54;13.00;99.90
22491;DHT22;11412;50.802;4.350;2022-11-18T13:36:22;13.10;99.90
22491;DHT22;11412;50.802;4.350;2022-11-18T13:41:21;12.60;99.90
22491;DHT22;11412;50.802;4.350;2022-11-18T13:46:41;12.50;99.90
22491;DHT22;11412;50.802;4.350;2022-11-18T13:49:13;12.50;99.90
22491;DHT22;11412;50.802;4.350;2022-11-18T13:51:41;12.60;99.90
22491;DHT22;11412;50.802;4.350;2022-11-18T13:54:11;12.70;99.90
22491;DHT22;11412;50.802;4.350;2022-11-18T13:56:39;12.50;99.90
22491;DHT22;11412;50.802;4.350;2022-11-18T13:59:04;12.60;99.90
22491;DHT22;11412;50.802;4.350;2022-11-18T14:01:32;12.80;99.90
22491;DHT22;11412;50.802;4.350;2022-11-18T14:04:33;12.70;99.90
22491;DHT22;11412;50.802;4.350;2022-11-18T14:07:25;12.40;99.90
22491;DHT22;11412;50.802;4.350;2022-11-18T14:10:04;12.60;99.90
22491;DHT22;11412;50.802;4.350;2022-11-18T14:12:31;12.70;99.90
22491;DHT22;11412;50.802;4.350;2022-11-18T14:17:49;12.30;99.90
22491;DHT22;11412;50.802;4.350;2022-11-18T14:20:15;12.00;99.90
22491;DHT22;11412;50.802;4.350;2022-11-18T14:22:42;11.80;99.90
22491;DHT22;11412;50.802;4.350;2022-11-18T14:27:53;11.80;99.90
22491;DHT22;11412;50.802;4.350;2022-11-18T14:30:29;12.20;99.90
22491;DHT22;11412;50.802;4.350;2022-11-18T14:33:20;12.30;99.90
22491;DHT22;11412;50.802;4.350;2022-11-18T14:36:09;12.30;99.90
22491;DHT22;11412;50.802;4.350;2022-11-18T14:38:49;12.20;99.90
22491;DHT22;11412;50.802;4.350;2022-11-18T14:41:18;12.00;99.90
22491;DHT22;11412;50.802;4.350;2022-11-18T14:44:04;12.30;99.90
22491;DHT22;11412;50.802;4.350;2022-11-18T14:46:30;12.40;99.90
22491;DHT22;11412;50.802;4.350;2022-11-18T14:48:57;12.20;99.90
22491;DHT22;11412;50.802;4.350;2022-11-18T14:51:23;12.50;99.90
22491;DHT22;11412;50.802;4.350;2022-11-18T14:53:48;12.50;99.90
22491;DHT22;11412;50.802;4.350;2022-11-18T14:56:21;12.40;99.90
22491;DHT22;11412;50.802;4.350;2022-11-18T14:58:48;12.40;99.90
22491;DHT22;11412;50.802;4.350;2022-11-18T15:01:14;12.40;99.90
22491;DHT22;11412;50.802;4.350;2022-11-18T15:03:39;12.50;99.90
22491;DHT22;11412;50.802;4.350;2022-11-18T15:06:15;12.70;99.90
22491;DHT22;11412;50.802;4.350;2022-11-18T15:08:42;12.50;99.90
22491;DHT22;11412;50.802;4.350;2022-11-18T15:11:09;12.40;99.90
22491;DHT22;11412;50.802;4.350;2022-11-18T15:13:34;12.30;99.90
22491;DHT22;11412;50.802;4.350;2022-11-18T15:16:24;12.50;99.90
22491;DHT22;11412;50.802;4.350;2022-11-18T15:18:53;12.30;99.90
22491;DHT22;11412;50.802;4.350;2022-11-18T15:21:19;12.20;99.90
22491;DHT22;11412;50.802;4.350;2022-11-18T15:23:45;12.40;99.90
22491;DHT22;11412;50.802;4.350;2022-11-18T15:26:35;12.30;99.90
22491;DHT22;11412;50.802;4.350;2022-11-18T15:29:02;12.50;99.90
22491;DHT22;11412;50.802;4.350;2022-11-18T15:31:28;12.50;99.90
22491;DHT22;11412;50.802;4.350;2022-11-18T15:33:54;12.40;99.90
22491;DHT22;11412;50.802;4.350;2022-11-18T15:36:25;12.30;99.90
22491;DHT22;11412;50.802;4.350;2022-11-18T15:38:52;12.40;99.90
22491;DHT22;11412;50.802;4.350;2022-11-18T15:41:20;12.30;99.90
22491;DHT22;11412;50.802;4.350;2022-11-18T15:43:48;12.30;99.90
22491;DHT22;11412;50.802;4.350;2022-11-18T15:46:14;12.20;99.90
22491;DHT22;11412;50.802;4.350;2022-11-18T15:48:40;12.20;99.90
22491;DHT22;11412;50.802;4.350;2022-11-18T15:51:07;12.40;99.90
22491;DHT22;11412;50.802;4.350;2022-11-18T15:53:33;12.30;99.90
22491;DHT22;11412;50.802;4.350;2022-11-18T15:58:44;12.10;99.90
22491;DHT22;11412;50.802;4.350;2022-11-18T16:01:09;12.40;99.90
22491;DHT22;11412;50.802;4.350;2022-11-18T16:03:35;12.10;99.90
22491;DHT22;11412;50.802;4.350;2022-11-18T16:06:02;12.10;99.90
22491;DHT22;11412;50.802;4.350;2022-11-18T16:08:29;12.10;99.90
22491;DHT22;11412;50.802;4.350;2022-11-18T16:10:55;12.10;99.90
22491;DHT22;11412;50.802;4.350;2022-11-18T16:13:40;12.10;99.90
22491;DHT22;11412;50.802;4.350;2022-11-18T16:16:06;12.20;99.90
22491;DHT22;11412;50.802;4.350;2022-11-18T16:18:31;12.10;99.90
22491;DHT22;11412;50.802;4.350;2022-11-18T16:21:00;12.20;99.90
22491;DHT22;11412;50.802;4.350;2022-11-18T16:23:26;12.10;99.90
22491;DHT22;11412;50.802;4.350;2022-11-18T16:25:55;12.20;99.90
22491;DHT22;11412;50.802;4.350;2022-11-18T16:28:20;11.80;99.90
22491;DHT22;11412;50.802;4.350;2022-11-18T16:30:49;11.80;99.90
22491;DHT22;11412;50.802;4.350;2022-11-18T16:33:33;11.90;99.90
22491;DHT22;11412;50.802;4.350;2022-11-18T16:35:59;12.10;99.90
22491;DHT22;11412;50.802;4.350;2022-11-18T16:38:25;12.00;99.90
22491;DHT22;11412;50.802;4.350;2022-11-18T16:40:57;12.00;99.90
22491;DHT22;11412;50.802;4.350;2022-11-18T16:43:24;12.10;99.90
22491;DHT22;11412;50.802;4.350;2022-11-18T16:45:53;12.20;99.90
22491;DHT22;11412;50.802;4.350;2022-11-18T16:48:20;12.20;99.90
22491;DHT22;11412;50.802;4.350;2022-11-18T16:51:17;12.00;99.90
22491;DHT22;11412;50.802;4.350;2022-11-18T16:53:42;11.80;99.90
22491;DHT22;11412;50.802;4.350;2022-11-18T16:56:08;11.60;99.90
22491;DHT22;11412;50.802;4.350;2022-11-18T16:58:34;11.60;99.90
22491;DHT22;11412;50.802;4.350;2022-11-18T17:01:08;11.90;99.90
22491;DHT22;11412;50.802;4.350;2022-11-18T17:03:34;11.80;99.90
22491;DHT22;11412;50.802;4.350;2022-11-18T17:06:00;11.60;99.90
22491;DHT22;11412;50.802;4.350;2022-11-18T17:08:25;11.80;99.90
22491;DHT22;11412;50.802;4.350;2022-11-18T17:10:51;11.70;99.90
22491;DHT22;11412;50.802;4.350;2022-11-18T17:13:17;11.90;99.90
22491;DHT22;11412;50.802;4.350;2022-11-18T17:15:42;11.80;99.90
22491;DHT22;11412;50.802;4.350;2022-11-18T17:18:08;11.70;99.90
22491;DHT22;11412;50.802;4.350;2022-11-18T17:20:34;11.60;99.90
22491;DHT22;11412;50.802;4.350;2022-11-18T17:23:00;11.50;99.90
22491;DHT22;11412;50.802;4.350;2022-11-18T17:25:25;11.70;99.90
22491;DHT22;11412;50.802;4.350;2022-11-18T17:27:51;11.70;99.90
22491;DHT22;11412;50.802;4.350;2022-11-18T17:30:17;11.60;99.90
22491;DHT22;11412;50.802;4.350;2022-11-18T17:32:42;11.70;99.90
22491;DHT22;11412;50.802;4.350;2022-11-18T17:35:08;11.50;99.90
22491;DHT22;11412;50.802;4.350;2022-11-18T17:37:34;11.50;99.90
22491;DHT22;11412;50.802;4.350;2022-11-18T17:39:59;11.70;99.90
22491;DHT22;11412;50.802;4.350;2022-11-18T17:42:25;11.60;99.90
22491;DHT22;11412;50.802;4.350;2022-11-18T17:44:51;11.50;99.90
22491;DHT22;11412;50.802;4.350;2022-11-18T17:47:17;11.60;99.90
22491;DHT22;11412;50.802;4.350;2022-11-18T17:49:43;11.60;99.90
22491;DHT22;11412;50.802;4.350;2022-11-18T17:52:08;11.50;99.90
22491;DHT22;11412;50.802;4.350;2022-11-18T17:54:34;11.50;99.90
22491;DHT22;11412;50.802;4.350;2022-11-18T17:57:00;11.20;99.90